Time;durP1;ratioP1;P1;durP2;ratioP2;P2;SDS_P1;SDS_P2;PMS_P1;PMS_P2;Temp;Humidity;BMP_temperature;BMP_pressure;BME280_temperature;BME280_humidity;BME280_pressure;Samples;Min_cycle;Max_cycle;Signal;HPM_P1;HPM_P2
2021/03/26 00:01:40;;;;;;;8.15;6.28;;;8.00;81.20;;;;;;6271838;28;20128;-77
2021/03/26 00:04:41;;;;;;;11.02;9.60;;;8.00;81.50;;;;;;6275042;28;20052;-78
2021/03/26 00:07:44;;;;;;;12.82;7.53;;;7.90;82.00;;;;;;6284862;28;20494;-78
2021/03/26 00:10:46;;;;;;;13.90;9.07;;;7.90;82.30;;;;;;6272641;28;20056;-77
2021/03/26 00:13:47;;;;;;;7.18;6.47;;;7.90;82.60;;;;;;6271414;28;20101;-77
2021/03/26 00:16:49;;;;;;;15.88;10.13;;;7.80;82.60;;;;;;6272830;28;20068;-77
2021/03/26 00:19:50;;;;;;;13.25;9.23;;;7.80;83.30;;;;;;6271449;28;20041;-77
2021/03/26 00:22:52;;;;;;;13.82;8.40;;;7.70;83.50;;;;;;6272782;28;20080;-78
2021/03/26 00:25:55;;;;;;;9.85;6.55;;;7.70;83.70;;;;;;6272645;28;20118;-78
2021/03/26 00:28:56;;;;;;;10.88;7.15;;;7.70;83.70;;;;;;6272099;28;20414;-78
2021/03/26 00:31:57;;;;;;;10.88;7.65;;;7.60;83.70;;;;;;6271628;28;20830;-77
2021/03/26 00:34:58;;;;;;;12.25;7.30;;;7.60;84.10;;;;;;6271991;28;20063;-77
2021/03/26 00:38:01;;;;;;;12.25;7.93;;;7.50;84.50;;;;;;6271718;28;20566;-77
2021/03/26 00:41:04;;;;;;;14.52;8.20;;;7.40;84.50;;;;;;6271523;28;20136;-77
2021/03/26 00:44:06;;;;;;;11.15;9.07;;;7.40;84.90;;;;;;6271658;28;20076;-77
2021/03/26 00:47:08;;;;;;;10.23;7.15;;;7.30;85.20;;;;;;6271546;28;20080;-77
2021/03/26 00:50:12;;;;;;;21.40;8.80;;;7.30;85.20;;;;;;6271817;28;20091;-77
2021/03/26 00:53:18;;;;;;;16.63;10.27;;;7.20;85.40;;;;;;6271145;28;20076;-77
2021/03/26 00:56:19;;;;;;;8.80;7.65;;;7.10;85.70;;;;;;6277384;28;20095;-77
2021/03/26 00:59:20;;;;;;;7.65;5.68;;;7.10;86.00;;;;;;6276065;28;20048;-77
2021/03/26 01:02:22;;;;;;;11.38;7.90;;;7.10;86.10;;;;;;6276532;28;20073;-76
2021/03/26 01:05:27;;;;;;;11.23;8.32;;;7.00;86.00;;;;;;6275592;28;20068;-77
2021/03/26 01:08:29;;;;;;;11.90;8.00;;;7.00;86.40;;;;;;6273765;28;20458;-76
2021/03/26 01:11:33;;;;;;;12.45;8.18;;;7.00;86.70;;;;;;6250605;28;20060;-77
2021/03/26 01:14:35;;;;;;;6.68;6.03;;;6.90;87.00;;;;;;6251465;28;20103;-76
2021/03/26 01:17:36;;;;;;;9.43;7.25;;;6.90;87.00;;;;;;6250552;28;20249;-77
2021/03/26 01:20:39;;;;;;;14.45;7.63;;;6.80;87.20;;;;;;6250228;28;20124;-77
2021/03/26 01:23:43;;;;;;;10.80;6.15;;;6.80;87.50;;;;;;6250799;28;20128;-77
2021/03/26 01:26:46;;;;;;;9.93;7.55;;;6.80;87.70;;;;;;6251455;28;20132;-77
2021/03/26 01:29:47;;;;;;;10.50;7.30;;;6.70;87.80;;;;;;6250204;28;20633;-77
2021/03/26 01:32:49;;;;;;;8.60;7.35;;;6.60;88.10;;;;;;6250313;28;20073;-77
2021/03/26 01:35:51;;;;;;;9.75;6.68;;;6.60;88.20;;;;;;6250472;28;20123;-77
2021/03/26 01:38:53;;;;;;;11.82;7.18;;;6.50;88.30;;;;;;6250799;28;20160;-77
2021/03/26 01:41:55;;;;;;;8.20;7.20;;;6.40;88.50;;;;;;6250363;28;20555;-77
2021/03/26 01:44:56;;;;;;;9.45;7.55;;;6.30;88.80;;;;;;6250160;28;20124;-77
2021/03/26 01:47:58;;;;;;;15.73;8.05;;;6.30;89.30;;;;;;6250252;28;20049;-77
2021/03/26 01:51:01;;;;;;;11.00;8.18;;;6.20;89.60;;;;;;6251206;28;20139;-77
2021/03/26 01:54:05;;;;;;;9.60;6.72;;;6.20;89.80;;;;;;6252432;28;20057;-78
2021/03/26 01:57:07;;;;;;;11.85;6.95;;;6.20;89.80;;;;;;6257855;28;20046;-77
2021/03/26 02:00:10;;;;;;;8.68;6.80;;;6.00;90.00;;;;;;6251110;28;20073;-77
2021/03/26 02:03:18;;;;;;;14.20;7.75;;;6.00;90.10;;;;;;6253166;28;20050;-77
2021/03/26 02:06:22;;;;;;;9.50;8.07;;;5.90;90.20;;;;;;6250641;28;20049;-78
2021/03/26 02:09:29;;;;;;;9.52;8.15;;;5.80;90.30;;;;;;6251277;28;20291;-77
2021/03/26 02:12:33;;;;;;;17.33;9.90;;;5.80;90.50;;;;;;6253310;28;20165;-77
2021/03/26 02:15:40;;;;;;;16.65;9.00;;;5.80;90.60;;;;;;6255200;28;20065;-78
2021/03/26 02:18:42;;;;;;;13.98;8.65;;;5.70;91.00;;;;;;6250620;28;20148;-77
2021/03/26 02:21:44;;;;;;;16.63;8.82;;;5.60;91.00;;;;;;6249149;28;20149;-77
2021/03/26 02:24:48;;;;;;;18.23;9.73;;;5.50;91.10;;;;;;6249263;28;20080;-76
2021/03/26 02:27:50;;;;;;;21.38;8.43;;;5.40;91.30;;;;;;6249529;28;20076;-77
2021/03/26 02:30:54;;;;;;;14.23;9.43;;;5.30;91.50;;;;;;6249608;28;20091;-77
2021/03/26 02:33:56;;;;;;;10.85;8.40;;;5.30;91.80;;;;;;6249604;28;20124;-77
2021/03/26 02:37:00;;;;;;;13.20;10.02;;;5.20;91.90;;;;;;6249089;28;20046;-77
2021/03/26 02:40:05;;;;;;;14.20;7.78;;;5.10;92.00;;;;;;6249074;28;20123;-77
2021/03/26 02:43:23;;;;;;;11.30;9.38;;;5.10;92.30;;;;;;6248908;28;20136;-78
2021/03/26 02:46:31;;;;;;;13.63;11.35;;;5.10;92.40;;;;;;6248957;28;20084;-77
2021/03/26 02:49:41;;;;;;;14.07;9.32;;;5.00;92.70;;;;;;6249132;28;20065;-77
2021/03/26 02:52:51;;;;;;;16.63;9.40;;;5.00;92.80;;;;;;6248567;28;20050;-77
2021/03/26 02:56:01;;;;;;;13.25;9.77;;;5.00;92.70;;;;;;6260071;28;20064;-77
2021/03/26 02:59:06;;;;;;;13.85;10.10;;;4.90;92.90;;;;;;6249375;28;20077;-77
2021/03/26 03:02:11;;;;;;;15.77;10.27;;;4.90;93.00;;;;;;6249254;28;20052;-78
2021/03/26 03:05:17;;;;;;;18.33;9.52;;;4.90;93.00;;;;;;6250828;28;20083;-77
2021/03/26 03:08:23;;;;;;;14.00;10.35;;;4.80;93.10;;;;;;6249942;28;20046;-77
2021/03/26 03:11:30;;;;;;;17.33;10.57;;;4.80;93.10;;;;;;6252433;28;20052;-76
2021/03/26 03:14:37;;;;;;;14.00;10.20;;;4.70;93.40;;;;;;6270501;28;20087;-76
2021/03/26 03:17:45;;;;;;;11.73;10.18;;;4.70;93.40;;;;;;6269366;28;20069;-76
2021/03/26 03:20:54;;;;;;;13.73;10.10;;;4.60;93.40;;;;;;6269570;28;20042;-76
2021/03/26 03:24:03;;;;;;;14.35;10.25;;;4.50;93.50;;;;;;6262758;28;20136;-76
2021/03/26 03:27:18;;;;;;;17.48;10.55;;;4.40;93.60;;;;;;6248687;28;20499;-78
2021/03/26 03:30:27;;;;;;;16.30;9.02;;;4.40;93.70;;;;;;6248246;28;20053;-77
2021/03/26 03:33:36;;;;;;;17.77;10.40;;;4.40;93.90;;;;;;6248030;28;20114;-76
2021/03/26 03:36:48;;;;;;;15.30;9.00;;;4.40;94.40;;;;;;6247702;28;20140;-76
2021/03/26 03:39:59;;;;;;;9.32;7.68;;;4.40;94.10;;;;;;6247397;28;20466;-76
2021/03/26 03:43:07;;;;;;;15.18;8.75;;;4.30;94.10;;;;;;6247792;28;20132;-79
2021/03/26 03:46:10;;;;;;;;;;;4.30;94.20;;;;;;6249013;28;20052;-77
2021/03/26 03:49:17;;;;;;;15.65;8.70;;;4.30;94.00;;;;;;6247230;28;20434;-77
2021/03/26 03:52:24;;;;;;;14.27;8.73;;;4.20;93.90;;;;;;6247368;28;20076;-76
2021/03/26 03:55:37;;;;;;;12.13;9.13;;;4.20;94.00;;;;;;6247279;28;20276;-76
2021/03/26 03:58:41;;;;;;;12.38;9.07;;;4.10;93.90;;;;;;6251329;28;20049;-79
2021/03/26 04:01:47;;;;;;;13.02;9.75;;;4.10;94.00;;;;;;6248379;28;20136;-78
2021/03/26 04:04:54;;;;;;;13.00;9.57;;;4.00;94.00;;;;;;6248521;28;20043;-80
2021/03/26 04:08:01;;;;;;;15.13;9.85;;;4.00;94.00;;;;;;6254063;28;20061;-79
2021/03/26 04:11:09;;;;;;;19.00;9.53;;;3.90;94.00;;;;;;6254782;28;20148;-79
2021/03/26 04:14:14;;;;;;;;;;;3.80;94.30;;;;;;6257342;28;20130;-79
2021/03/26 04:17:21;;;;;;;13.75;10.57;;;3.80;94.30;;;;;;6255127;28;20008;-79
2021/03/26 04:20:26;;;;;;;13.55;10.10;;;3.80;94.30;;;;;;6255548;28;20068;-80
2021/03/26 04:23:33;;;;;;;17.95;11.13;;;3.70;94.60;;;;;;6254928;28;20061;-79
2021/03/26 04:26:40;;;;;;;25.13;10.30;;;3.70;95.00;;;;;;6255333;28;20183;-79
2021/03/26 04:29:48;;;;;;;15.67;9.47;;;3.70;95.20;;;;;;6255246;28;20056;-79
2021/03/26 04:32:50;;;;;;;15.63;10.00;;;3.70;95.10;;;;;;6255418;28;20483;-79
2021/03/26 04:35:52;;;;;;;17.98;9.20;;;3.70;95.10;;;;;;6255485;28;20113;-79
2021/03/26 04:39:00;;;;;;;17.70;10.70;;;3.70;95.10;;;;;;6255925;28;20069;-79
2021/03/26 04:42:05;;;;;;;;;;;3.60;95.00;;;;;;6255905;28;20514;-79
2021/03/26 04:45:15;;;;;;;13.55;9.35;;;3.60;95.00;;;;;;6255696;28;19960;-79
2021/03/26 04:48:22;;;;;;;14.88;9.27;;;3.50;95.00;;;;;;6254952;28;20089;-79
2021/03/26 04:51:32;;;;;;;12.00;9.73;;;3.50;95.10;;;;;;6254933;28;20034;-79
2021/03/26 04:54:37;;;;;;;13.18;9.13;;;3.40;95.00;;;;;;6254723;28;20139;-79
2021/03/26 04:57:45;;;;;;;12.73;9.07;;;3.40;94.90;;;;;;6254395;28;20046;-79
2021/03/26 05:00:49;;;;;;;13.80;9.63;;;3.30;94.90;;;;;;6253426;28;20533;-79
2021/03/26 05:03:57;;;;;;;14.13;8.82;;;3.30;94.90;;;;;;6252469;28;20101;-79
2021/03/26 05:07:01;;;;;;;10.73;9.10;;;3.30;94.80;;;;;;6253683;28;20183;-78
2021/03/26 05:10:07;;;;;;;12.87;10.57;;;3.30;94.90;;;;;;6253449;28;20069;-78
2021/03/26 05:13:14;;;;;;;16.33;11.90;;;3.30;95.20;;;;;;6252671;28;20121;-78
2021/03/26 05:16:22;;;;;;;14.07;10.63;;;3.30;95.10;;;;;;6252556;28;20048;-78
2021/03/26 05:19:30;;;;;;;33.15;15.40;;;3.30;95.20;;;;;;6252628;28;20069;-79
2021/03/26 05:22:41;;;;;;;26.17;17.07;;;3.30;96.90;;;;;;6252313;28;20084;-79
2021/03/26 05:25:44;;;;;;;15.48;11.10;;;3.50;98.00;;;;;;6251382;28;20164;-78
2021/03/26 05:28:47;;;;;;;13.47;10.43;;;3.50;97.50;;;;;;6253239;28;20073;-78
2021/03/26 05:31:59;;;;;;;15.13;10.03;;;3.50;97.10;;;;;;6252771;28;20042;-79
2021/03/26 05:35:07;;;;;;;14.77;10.47;;;3.40;96.80;;;;;;6252895;28;20710;-78
2021/03/26 05:38:20;;;;;;;13.88;9.73;;;3.50;96.70;;;;;;6253424;28;20148;-78
2021/03/26 05:41:53;;;;;;;13.10;9.53;;;3.40;96.40;;;;;;6255447;28;20056;-78
2021/03/26 05:45:06;;;;;;;15.30;11.83;;;3.40;96.00;;;;;;6256400;28;20105;-78
2021/03/26 05:48:32;;;;;;;17.33;10.10;;;3.40;95.80;;;;;;6250081;28;20049;-78
2021/03/26 05:52:02;;;;;;;15.20;10.63;;;3.50;95.60;;;;;;6255684;28;20406;-79
2021/03/26 05:55:19;;;;;;;18.13;12.97;;;3.50;95.60;;;;;;6233682;28;20400;-79
2021/03/26 05:58:29;;;;;;;14.15;9.77;;;3.70;95.60;;;;;;6260523;28;20565;-79
2021/03/26 06:01:52;;;;;;;26.90;12.13;;;3.80;95.40;;;;;;6261406;28;20111;-79
2021/03/26 06:05:39;;;;;;;15.37;10.07;;;3.90;95.30;;;;;;6259966;28;20507;-79
2021/03/26 06:09:09;;;;;;;21.50;12.53;;;4.00;95.10;;;;;;6261263;28;20136;-78
2021/03/26 06:12:34;;;;;;;26.73;11.52;;;4.20;94.70;;;;;;6259956;28;20518;-79
2021/03/26 06:16:05;;;;;;;37.05;16.77;;;4.30;94.50;;;;;;6258515;28;20087;-79
2021/03/26 06:19:55;;;;;;;24.63;14.30;;;4.60;95.30;;;;;;6258054;28;20050;-79
2021/03/26 06:23:15;;;;;;;32.30;12.02;;;5.00;95.50;;;;;;6198218;28;20490;-79
2021/03/26 06:26:59;;;;;;;16.30;10.52;;;5.50;95.10;;;;;;6258400;28;20460;-78
2021/03/26 06:30:20;;;;;;;21.92;10.68;;;5.90;93.80;;;;;;6230595;28;20063;-79
2021/03/26 06:33:45;;;;;;;21.38;9.70;;;6.10;93.00;;;;;;6258124;28;20136;-79
2021/03/26 06:37:01;;;;;;;14.98;11.50;;;6.20;92.20;;;;;;6257946;28;20065;-80
2021/03/26 06:40:40;;;;;;;11.90;9.60;;;6.30;91.90;;;;;;6258741;28;20579;-79
2021/03/26 06:44:16;;;;;;;12.55;8.65;;;6.50;91.70;;;;;;6244124;28;20060;-79
2021/03/26 06:47:24;;;;;;;10.27;7.13;;;6.90;91.70;;;;;;6264339;28;20045;-79
2021/03/26 06:50:39;;;;;;;10.30;8.05;;;7.10;90.80;;;;;;6262457;28;20080;-79
2021/03/26 06:53:48;;;;;;;13.15;8.25;;;7.30;90.60;;;;;;6258733;28;20042;-79
2021/03/26 06:57:08;;;;;;;17.98;7.85;;;7.60;90.40;;;;;;6266012;28;20097;-79
2021/03/26 07:00:40;;;;;;;11.68;7.80;;;7.90;90.00;;;;;;6266494;28;20057;-79
2021/03/26 07:04:16;;;;;;;10.40;7.00;;;8.20;89.10;;;;;;6268841;28;20053;-79
2021/03/26 07:07:46;;;;;;;10.00;7.25;;;8.50;87.30;;;;;;6289156;28;20045;-77
2021/03/26 07:11:04;;;;;;;8.95;6.72;;;8.70;86.10;;;;;;6291260;28;20048;-79
2021/03/26 07:14:30;;;;;;;10.23;6.77;;;8.90;85.30;;;;;;6287325;28;20479;-79
2021/03/26 07:18:04;;;;;;;8.45;7.65;;;9.00;84.60;;;;;;6286918;28;20072;-78
2021/03/26 07:21:25;;;;;;;10.65;7.85;;;9.30;83.30;;;;;;6286122;28;20056;-78
2021/03/26 07:24:54;;;;;;;10.30;7.45;;;9.50;82.60;;;;;;6285351;28;20124;-78
2021/03/26 07:28:14;;;;;;;9.00;7.63;;;9.70;81.90;;;;;;6281593;28;20079;-78
2021/03/26 07:31:31;;;;;;;17.05;8.15;;;10.00;80.60;;;;;;6275084;28;20072;-79
2021/03/26 07:34:43;;;;;;;9.25;7.22;;;10.20;79.50;;;;;;6276818;28;20049;-78
2021/03/26 07:37:56;;;;;;;10.43;6.55;;;10.40;78.70;;;;;;6275797;28;20139;-78
2021/03/26 07:41:10;;;;;;;11.20;7.90;;;10.70;77.50;;;;;;6275179;28;20068;-79
2021/03/26 07:44:30;;;;;;;11.02;7.03;;;10.90;75.90;;;;;;6274796;28;20518;-78
2021/03/26 07:48:10;;;;;;;11.95;7.75;;;11.20;74.80;;;;;;6275479;28;20049;-78
2021/03/26 07:51:21;;;;;;;8.30;7.40;;;11.30;74.40;;;;;;6269121;28;20562;-79
2021/03/26 07:54:47;;;;;;;13.38;7.55;;;11.40;74.30;;;;;;6276012;28;20064;-79
2021/03/26 07:58:37;;;;;;;9.00;6.88;;;11.50;72.90;;;;;;6254489;28;20755;-78
2021/03/26 08:02:15;;;;;;;11.32;7.82;;;11.70;72.30;;;;;;6217072;28;20520;-79
2021/03/26 08:05:25;;;;;;;12.00;7.43;;;11.90;71.50;;;;;;6278584;28;20574;-79
2021/03/26 08:08:53;;;;;;;12.55;6.88;;;12.10;70.90;;;;;;6280100;28;20134;-79
2021/03/26 08:11:59;;;;;;;9.93;6.78;;;12.40;70.00;;;;;;6268923;28;20102;-79
2021/03/26 08:15:25;;;;;;;8.27;7.45;;;12.70;68.70;;;;;;6279932;28;20049;-79
2021/03/26 08:18:40;;;;;;;10.65;6.05;;;13.10;67.80;;;;;;6280074;28;20056;-79
2021/03/26 08:21:50;;;;;;;10.13;6.60;;;13.40;66.20;;;;;;6278880;28;20052;-79
2021/03/26 08:25:17;;;;;;;8.52;6.50;;;13.50;65.50;;;;;;6279806;28;20113;-79
2021/03/26 08:28:51;;;;;;;7.43;6.70;;;13.40;65.60;;;;;;6277002;28;20052;-79
2021/03/26 08:32:31;;;;;;;15.82;6.18;;;13.60;65.60;;;;;;6228123;28;20071;-79
2021/03/26 08:35:44;;;;;;;9.38;5.82;;;14.00;64.60;;;;;;6276093;28;20073;-78
2021/03/26 08:39:15;;;;;;;10.38;7.07;;;;;;;;;;6273701;28;20049;-78
2021/03/26 08:42:23;;;;;;;10.02;5.90;;;14.60;61.80;;;;;;6149192;29;20134;-78
2021/03/26 08:45:32;;;;;;;8.80;6.38;;;15.00;60.70;;;;;;6273724;28;20045;-78
2021/03/26 08:48:39;;;;;;;7.88;6.88;;;15.20;59.90;;;;;;6273437;28;20503;-78
2021/03/26 08:52:26;;;;;;;12.10;6.53;;;15.40;59.00;;;;;;6274133;28;20124;-78
2021/03/26 08:55:42;;;;;;;11.93;6.85;;;15.60;59.40;;;;;;6221161;28;20074;-79
2021/03/26 08:59:13;;;;;;;15.40;7.15;;;15.80;57.60;;;;;;6274500;28;20076;-78
2021/03/26 09:02:51;;;;;;;9.73;7.00;;;16.00;57.40;;;;;;6273164;28;20174;-78
2021/03/26 09:06:10;;;;;;;11.57;8.55;;;16.20;57.20;;;;;;6272896;28;20509;-78
2021/03/26 09:09:42;;;;;;;11.63;7.95;;;16.40;56.20;;;;;;6273324;28;20183;-79
2021/03/26 09:12:56;;;;;;;11.13;7.18;;;16.60;56.00;;;;;;6272501;28;20041;-78
2021/03/26 09:16:05;;;;;;;13.60;9.60;;;16.80;55.20;;;;;;6273488;28;20052;-78
2021/03/26 09:19:11;;;;;;;13.50;8.10;;;17.00;54.30;;;;;;6277269;28;20045;-78
2021/03/26 09:22:28;;;;;;;13.45;6.75;;;17.30;53.70;;;;;;6279589;28;20084;-79
2021/03/26 09:25:44;;;;;;;8.90;6.82;;;17.60;53.20;;;;;;6279492;28;20076;-78
2021/03/26 09:28:52;;;;;;;13.50;6.65;;;17.70;54.20;;;;;;6277600;28;20075;-78
2021/03/26 09:31:58;;;;;;;13.02;8.80;;;17.90;53.20;;;;;;6277514;28;20481;-78
2021/03/26 09:35:06;;;;;;;15.07;8.27;;;18.10;51.70;;;;;;6276065;28;20132;-78
2021/03/26 09:38:21;;;;;;;13.15;8.90;;;18.10;52.20;;;;;;6277913;28;20060;-78
2021/03/26 09:41:31;;;;;;;14.57;9.05;;;18.50;51.30;;;;;;6279575;28;20048;-79
2021/03/26 09:44:37;;;;;;;10.18;7.85;;;18.60;49.90;;;;;;6279530;28;20105;-79
2021/03/26 09:47:48;;;;;;;12.32;8.57;;;18.60;49.40;;;;;;6279699;28;20052;-79
2021/03/26 09:51:01;;;;;;;15.65;8.85;;;18.60;49.60;;;;;;6282416;28;20068;-78
2021/03/26 09:54:14;;;;;;;11.88;8.23;;;18.60;49.60;;;;;;6275756;28;20102;-78
2021/03/26 09:57:30;;;;;;;17.50;8.40;;;18.60;49.60;;;;;;6275201;28;20068;-78
2021/03/26 10:00:46;;;;;;;12.32;9.27;;;18.60;49.60;;;;;;6275945;28;20049;-78
2021/03/26 10:03:59;;;;;;;9.82;8.55;;;18.90;48.90;;;;;;6275455;28;20150;-78
2021/03/26 10:07:16;;;;;;;13.30;8.02;;;19.00;49.10;;;;;;6276671;28;20132;-78
2021/03/26 10:13:50;;;;;;;10.88;9.43;;;19.10;47.90;;;;;;6274392;28;20045;-79
2021/03/26 10:16:58;;;;;;;13.73;8.45;;;19.00;47.80;;;;;;6273931;28;20186;-78
2021/03/26 10:20:17;;;;;;;15.15;9.43;;;19.10;48.50;;;;;;6274878;28;20055;-78
2021/03/26 10:23:29;;;;;;;;;;;19.20;47.80;;;;;;6274937;28;20060;-78
2021/03/26 10:26:38;;;;;;;13.63;9.07;;;19.40;48.60;;;;;;6274848;28;19927;-78
2021/03/26 10:29:45;;;;;;;11.05;9.18;;;19.60;46.90;;;;;;6273550;28;20475;-78
2021/03/26 10:32:49;;;;;;;15.00;10.13;;;19.70;47.00;;;;;;6274265;28;20414;-79
2021/03/26 10:36:01;;;;;;;10.20;8.50;;;19.80;46.70;;;;;;6274879;28;20048;-78
2021/03/26 10:39:08;;;;;;;13.38;8.77;;;19.90;46.20;;;;;;6275440;28;20060;-78
2021/03/26 10:42:18;;;;;;;15.93;9.85;;;20.10;45.90;;;;;;6276005;28;20098;-78
2021/03/26 10:45:47;;;;;;;10.68;9.50;;;20.20;45.90;;;;;;6276039;28;20068;-80
2021/03/26 10:48:55;;;;;;;14.77;9.48;;;20.20;46.80;;;;;;6274881;28;20049;-78
2021/03/26 10:52:06;;;;;;;9.73;8.30;;;20.30;45.70;;;;;;6279163;28;20130;-79
2021/03/26 10:55:11;;;;;;;13.45;10.18;;;20.40;44.80;;;;;;6281346;28;20049;-78
2021/03/26 10:58:33;;;;;;;16.10;10.73;;;20.40;45.40;;;;;;6278668;28;20045;-78
2021/03/26 11:01:40;;;;;;;15.35;11.35;;;20.60;44.10;;;;;;6277984;28;20065;-79
2021/03/26 11:04:43;;;;;;;17.48;10.15;;;20.50;43.20;;;;;;6272869;28;20071;-77
2021/03/26 11:07:50;;;;;;;12.43;9.70;;;20.40;44.40;;;;;;6274571;28;20077;-78
2021/03/26 11:10:56;;;;;;;13.77;10.45;;;20.50;45.00;;;;;;6275957;28;20087;-79
2021/03/26 11:14:31;;;;;;;13.25;11.00;;;20.70;44.90;;;;;;6275165;28;20056;-78
2021/03/26 11:17:47;;;;;;;13.13;9.40;;;20.80;44.20;;;;;;6274476;28;20572;-78
2021/03/26 11:20:51;;;;;;;12.10;9.40;;;20.90;43.40;;;;;;6273912;28;20076;-78
2021/03/26 11:23:59;;;;;;;12.88;8.68;;;21.10;42.80;;;;;;6271996;28;20511;-77
2021/03/26 11:27:04;;;;;;;16.17;9.00;;;21.20;42.40;;;;;;6274494;28;20040;-78
2021/03/26 11:30:34;;;;;;;16.60;8.25;;;21.20;41.70;;;;;;6276681;28;20080;-78
2021/03/26 11:33:44;;;;;;;10.60;7.10;;;21.10;41.50;;;;;;6270087;28;20076;-78
2021/03/26 11:37:02;;;;;;;15.18;7.65;;;21.00;41.30;;;;;;6275970;28;20045;-84
2021/03/26 11:40:12;;;;;;;9.50;7.50;;;20.90;41.80;;;;;;6286235;28;20049;-79
2021/03/26 11:43:18;;;;;;;13.27;9.40;;;20.90;42.10;;;;;;6284465;28;20080;-78
2021/03/26 11:46:22;;;;;;;10.50;9.45;;;21.00;42.40;;;;;;6281554;28;20095;-79
2021/03/26 11:49:28;;;;;;;8.73;7.65;;;21.00;41.90;;;;;;6281178;28;20049;-79
2021/03/26 11:52:38;;;;;;;9.27;6.90;;;21.10;42.40;;;;;;6279797;28;20087;-78
2021/03/26 11:55:51;;;;;;;11.55;6.55;;;21.20;40.50;;;;;;6281693;28;20072;-78
2021/03/26 11:59:29;;;;;;;13.93;7.45;;;21.10;39.90;;;;;;6284729;28;20063;-78
2021/03/26 12:02:50;;;;;;;12.43;8.15;;;21.10;40.30;;;;;;6301173;28;20051;-79
2021/03/26 12:06:20;;;;;;;9.00;6.50;;;21.00;40.80;;;;;;6300500;28;20037;-79
2021/03/26 12:09:30;;;;;;;7.93;6.78;;;21.20;40.70;;;;;;6283314;28;20073;-78
2021/03/26 12:12:38;;;;;;;10.90;7.28;;;21.30;40.50;;;;;;6296738;28;20240;-78
2021/03/26 12:15:43;;;;;;;9.47;7.13;;;21.40;40.10;;;;;;6283922;28;20055;-80
2021/03/26 12:18:50;;;;;;;15.15;6.18;;;21.40;39.40;;;;;;6285520;28;20375;-79
2021/03/26 12:21:59;;;;;;;7.57;6.63;;;21.30;39.20;;;;;;6284702;28;20049;-79
2021/03/26 12:25:09;;;;;;;11.82;5.88;;;21.10;39.20;;;;;;6283998;28;20478;-79
2021/03/26 12:28:20;;;;;;;11.90;7.43;;;21.20;40.00;;;;;;6283127;28;20052;-79
2021/03/26 12:31:26;;;;;;;9.75;6.45;;;21.30;40.40;;;;;;6283399;28;20483;-78
2021/03/26 12:34:59;;;;;;;11.43;7.45;;;21.20;40.00;;;;;;6282506;28;20083;-79
2021/03/26 12:38:11;;;;;;;8.25;5.75;;;21.30;39.70;;;;;;6260109;28;20132;-79
2021/03/26 12:41:41;;;;;;;16.02;10.95;;;21.40;39.60;;;;;;6280409;28;20056;-79
2021/03/26 12:44:45;;;;;;;11.60;7.28;;;21.40;39.70;;;;;;6280084;28;20063;-79
2021/03/26 12:47:50;;;;;;;9.05;8.27;;;21.30;40.10;;;;;;6280108;28;20132;-78
2021/03/26 12:50:56;;;;;;;9.18;7.82;;;21.30;39.70;;;;;;6282083;28;20052;-79
2021/03/26 12:54:02;;;;;;;15.43;9.85;;;21.20;40.40;;;;;;6285140;28;20605;-79
2021/03/26 12:57:11;;;;;;;9.60;7.45;;;21.10;39.60;;;;;;6284938;28;20049;-78
2021/03/26 13:00:18;;;;;;;7.28;6.03;;;21.00;39.80;;;;;;6286023;28;20481;-80
2021/03/26 13:03:28;;;;;;;11.35;7.47;;;20.80;40.70;;;;;;6285224;28;20134;-80
2021/03/26 13:06:36;;;;;;;7.57;6.40;;;20.70;40.60;;;;;;6285715;28;20060;-79
2021/03/26 13:09:50;;;;;;;8.00;5.88;;;20.70;40.90;;;;;;6285490;28;20473;-79
2021/03/26 13:12:59;;;;;;;10.45;6.95;;;20.70;40.90;;;;;;6284440;28;20105;-79
2021/03/26 13:16:16;;;;;;;9.98;5.88;;;21.00;40.30;;;;;;6283637;28;20068;-78
2021/03/26 13:19:39;;;;;;;9.00;6.85;;;21.10;41.00;;;;;;6283260;28;20045;-78
2021/03/26 13:22:46;;;;;;;8.40;6.75;;;21.30;40.30;;;;;;6277633;28;20071;-78
2021/03/26 13:25:52;;;;;;;9.63;6.50;;;21.30;39.50;;;;;;6280262;28;20056;-77
2021/03/26 13:28:56;;;;;;;10.07;6.40;;;21.30;38.90;;;;;;6275102;28;20095;-76
2021/03/26 13:31:59;;;;;;;8.63;6.03;;;21.20;39.00;;;;;;6274798;28;20134;-77
2021/03/26 13:35:02;;;;;;;6.65;4.63;;;21.10;39.20;;;;;;6275277;28;20137;-76
2021/03/26 13:38:18;;;;;;;6.63;4.82;;;21.10;38.80;;;;;;6275044;28;20522;-77
2021/03/26 13:41:29;;;;;;;6.88;5.07;;;20.90;39.10;;;;;;6274785;28;20076;-77
2021/03/26 13:44:43;;;;;;;8.00;4.78;;;20.70;39.20;;;;;;6274703;28;20136;-77
2021/03/26 13:47:49;;;;;;;5.38;3.95;;;20.80;38.80;;;;;;6274376;28;20175;-78
2021/03/26 13:51:00;;;;;;;10.40;3.30;;;20.80;38.40;;;;;;6274929;28;20534;-77
2021/03/26 13:54:36;;;;;;;5.10;3.90;;;20.90;37.10;;;;;;6274901;28;20096;-76
2021/03/26 13:57:38;;;;;;;3.55;3.05;;;20.90;38.80;;;;;;6274492;28;20503;-76
2021/03/26 14:00:43;;;;;;;6.88;3.75;;;21.00;37.20;;;;;;6274439;28;20060;-77
2021/03/26 14:04:02;;;;;;;4.68;3.90;;;21.10;37.60;;;;;;6276675;28;20131;-77
2021/03/26 14:07:11;;;;;;;7.32;4.85;;;21.20;36.80;;;;;;6280812;28;20041;-79
2021/03/26 14:10:20;;;;;;;10.07;4.35;;;21.40;36.10;;;;;;6282338;28;20436;-77
2021/03/26 14:13:28;;;;;;;4.97;4.50;;;21.40;36.40;;;;;;6279995;28;20045;-78
2021/03/26 14:16:39;;;;;;;3.65;3.22;;;21.40;36.50;;;;;;6277802;28;20063;-78
2021/03/26 14:19:48;;;;;;;3.28;2.75;;;21.40;36.70;;;;;;6279442;28;20115;-77
2021/03/26 14:22:57;;;;;;;4.70;3.58;;;21.30;37.00;;;;;;6280009;28;20112;-77
2021/03/26 14:26:01;;;;;;;5.15;3.35;;;21.30;36.70;;;;;;6280864;28;20126;-77
2021/03/26 14:29:16;;;;;;;5.28;2.72;;;21.20;37.00;;;;;;6281236;28;20056;-77
2021/03/26 14:32:24;;;;;;;3.80;2.60;;;21.10;37.60;;;;;;6277805;28;20123;-77
2021/03/26 14:35:30;;;;;;;4.22;3.83;;;20.90;36.90;;;;;;6279399;28;20048;-78
2021/03/26 14:38:36;;;;;;;9.27;3.38;;;20.70;37.40;;;;;;6281267;28;20088;-77
2021/03/26 14:41:39;;;;;;;4.07;3.42;;;20.30;37.70;;;;;;6284554;28;20045;-80
2021/03/26 14:44:49;;;;;;;7.43;2.72;;;20.10;37.80;;;;;;6281825;28;20045;-79
2021/03/26 14:48:00;;;;;;;5.30;3.22;;;19.90;38.20;;;;;;6278143;28;20518;-80
2021/03/26 14:51:09;;;;;;;5.28;3.33;;;19.60;38.50;;;;;;6275953;28;20055;-77
2021/03/26 14:54:15;;;;;;;7.68;3.95;;;19.50;39.50;;;;;;6274863;28;20076;-78
2021/03/26 14:57:24;;;;;;;6.22;3.47;;;19.40;40.50;;;;;;6275718;28;20482;-76
2021/03/26 15:00:33;;;;;;;5.32;3.20;;;19.30;40.40;;;;;;6275409;28;20068;-78
2021/03/26 15:03:49;;;;;;;9.25;3.42;;;19.20;40.10;;;;;;6273484;28;20061;-78
2021/03/26 15:06:59;;;;;;;6.53;3.58;;;19.20;41.10;;;;;;6274099;28;20045;-77
2021/03/26 15:10:06;;;;;;;9.98;3.50;;;19.20;40.60;;;;;;6273484;28;20072;-77
2021/03/26 15:13:18;;;;;;;9.27;4.88;;;19.20;41.00;;;;;;6272046;28;20044;-78
2021/03/26 15:16:23;;;;;;;6.53;3.58;;;19.20;40.60;;;;;;6272842;28;20418;-78
2021/03/26 15:19:29;;;;;;;5.88;4.10;;;19.20;40.20;;;;;;6272699;28;20119;-78
2021/03/26 15:22:42;;;;;;;10.52;4.70;;;19.10;40.60;;;;;;6272892;28;20490;-77
2021/03/26 15:25:51;;;;;;;9.80;6.90;;;19.00;41.20;;;;;;6272465;28;20079;-78
2021/03/26 15:28:56;;;;;;;6.85;3.85;;;18.90;41.50;;;;;;6272559;28;20107;-77
2021/03/26 15:32:03;;;;;;;4.93;3.58;;;18.70;42.10;;;;;;6272413;28;20131;-78
2021/03/26 15:35:13;;;;;;;7.63;2.97;;;18.60;41.80;;;;;;6272250;28;20056;-77
2021/03/26 15:38:21;;;;;;;7.00;4.18;;;18.50;42.40;;;;;;6272836;28;20055;-77
2021/03/26 15:41:26;;;;;;;6.78;3.92;;;18.30;42.60;;;;;;6271939;28;20522;-77
2021/03/26 15:44:31;;;;;;;5.55;3.88;;;18.20;43.00;;;;;;6271935;28;20049;-77
2021/03/26 15:47:36;;;;;;;7.13;3.92;;;18.00;43.50;;;;;;6271956;28;20369;-78
2021/03/26 15:50:47;;;;;;;8.82;6.63;;;17.90;43.70;;;;;;6272237;28;20084;-78
2021/03/26 15:54:19;;;;;;;11.23;5.25;;;17.80;43.90;;;;;;6271475;28;20068;-78
2021/03/26 15:57:50;;;;;;;8.45;3.90;;;17.70;44.00;;;;;;6271685;28;20071;-78
2021/03/26 16:01:10;;;;;;;7.00;3.75;;;17.60;44.10;;;;;;6271670;28;20052;-78
2021/03/26 16:04:50;;;;;;;4.45;3.72;;;17.50;44.40;;;;;;6271196;28;20124;-77
2021/03/26 16:08:06;;;;;;;5.70;3.78;;;17.50;44.70;;;;;;6271808;28;20527;-78
2021/03/26 16:11:36;;;;;;;5.70;3.95;;;17.40;45.10;;;;;;6271845;28;20081;-77
2021/03/26 16:14:49;;;;;;;6.43;3.33;;;17.40;46.20;;;;;;6264696;28;20142;-77
2021/03/26 16:18:03;;;;;;;5.60;3.25;;;17.50;47.30;;;;;;6271418;28;20072;-77
2021/03/26 16:21:24;;;;;;;6.05;3.58;;;17.60;45.70;;;;;;6271095;28;20465;-78
2021/03/26 16:24:50;;;;;;;11.60;4.63;;;17.60;45.20;;;;;;6270761;28;20112;-77
2021/03/26 16:28:26;;;;;;;26.20;8.68;;;17.60;47.00;;;;;;6271282;28;20131;-77
2021/03/26 16:31:53;;;;;;;12.60;6.32;;;17.60;48.70;;;;;;6268738;28;20410;-80
2021/03/26 16:35:16;;;;;;;7.63;5.90;;;17.60;47.90;;;;;;6249523;28;20092;-78
2021/03/26 16:38:37;;;;;;;8.32;4.50;;;17.60;48.60;;;;;;6245890;28;20041;-78
2021/03/26 16:41:56;;;;;;;5.10;3.72;;;17.60;48.10;;;;;;6245663;28;20049;-78